Terminal Aerodrome Forecast
Issued by NWS

Home | Current Version | Previous Version | Text Only | Print | Product List | Glossary On
Versions: 1 2 3 4 5 6 7 8 9 10 11 12 13 14 15 16 17 18 19 20 21 22 23 24 25 26 27 28 29 30 31
000
FTUS46 KSEW 160920 AAC
TAFSEA
TAF AMD
KSEA 160920Z 1609/1712 17005KT P6SM SCT015 BKN150
      TEMPO 1610/1614 BKN015 OVC150
     FM161400 17004KT P6SM SCT025 BKN060
      TEMPO 1614/1618 BKN025 OVC060
     FM170600 16007KT P6SM -RA BKN015 OVC025=

USA.gov is the U.S. government's official web portal to all federal, state and local government web resources and services.